sensor_id;sensor_type;location;lat;lon;timestamp;temperature;humidity
35463;DHT22;21578;47.892;9.970;2022-08-04T00:03:20;22.00;77.00
35463;DHT22;21578;47.892;9.970;2022-08-04T00:08:19;21.90;77.60
35463;DHT22;21578;47.892;9.970;2022-08-04T00:13:08;21.80;77.90
35463;DHT22;21578;47.892;9.970;2022-08-04T00:18:00;21.70;77.80
35463;DHT22;21578;47.892;9.970;2022-08-04T00:22:51;21.70;78.00
35463;DHT22;21578;47.892;9.970;2022-08-04T00:27:38;21.70;77.70
35463;DHT22;21578;47.892;9.970;2022-08-04T00:32:25;21.70;78.30
35463;DHT22;21578;47.892;9.970;2022-08-04T00:37:14;21.80;77.80
35463;DHT22;21578;47.892;9.970;2022-08-04T00:42:17;21.70;78.10
35463;DHT22;21578;47.892;9.970;2022-08-04T00:47:22;21.70;78.40
35463;DHT22;21578;47.892;9.970;2022-08-04T00:52:30;21.70;78.80
35463;DHT22;21578;47.892;9.970;2022-08-04T00:57:29;21.60;79.70
35463;DHT22;21578;47.892;9.970;2022-08-04T01:02:24;21.50;80.20
35463;DHT22;21578;47.892;9.970;2022-08-04T01:07:29;21.40;80.50
35463;DHT22;21578;47.892;9.970;2022-08-04T01:12:39;21.40;80.10
35463;DHT22;21578;47.892;9.970;2022-08-04T01:17:42;21.40;80.70
35463;DHT22;21578;47.892;9.970;2022-08-04T01:23:07;21.40;81.20
35463;DHT22;21578;47.892;9.970;2022-08-04T01:28:14;21.30;81.00
35463;DHT22;21578;47.892;9.970;2022-08-04T01:33:11;21.30;80.90
35463;DHT22;21578;47.892;9.970;2022-08-04T01:38:03;21.20;81.90
35463;DHT22;21578;47.892;9.970;2022-08-04T01:42:53;21.20;82.20
35463;DHT22;21578;47.892;9.970;2022-08-04T01:47:47;21.10;82.80
35463;DHT22;21578;47.892;9.970;2022-08-04T01:52:37;21.00;83.00
35463;DHT22;21578;47.892;9.970;2022-08-04T01:57:25;20.90;83.40
35463;DHT22;21578;47.892;9.970;2022-08-04T02:02:12;20.90;83.60
35463;DHT22;21578;47.892;9.970;2022-08-04T02:07:07;20.90;83.70
35463;DHT22;21578;47.892;9.970;2022-08-04T02:12:04;21.00;83.60
35463;DHT22;21578;47.892;9.970;2022-08-04T02:16:51;20.90;83.70
35463;DHT22;21578;47.892;9.970;2022-08-04T02:21:40;20.80;84.00
35463;DHT22;21578;47.892;9.970;2022-08-04T02:26:28;20.80;84.80
35463;DHT22;21578;47.892;9.970;2022-08-04T02:31:26;20.80;84.50
35463;DHT22;21578;47.892;9.970;2022-08-04T02:36:20;20.80;84.80
35463;DHT22;21578;47.892;9.970;2022-08-04T02:41:09;20.80;84.90
35463;DHT22;21578;47.892;9.970;2022-08-04T02:45:57;20.70;85.60
35463;DHT22;21578;47.892;9.970;2022-08-04T02:50:48;20.70;85.70
35463;DHT22;21578;47.892;9.970;2022-08-04T02:55:37;20.60;85.40
35463;DHT22;21578;47.892;9.970;2022-08-04T03:00:25;20.50;85.50
35463;DHT22;21578;47.892;9.970;2022-08-04T03:05:17;20.50;85.80
35463;DHT22;21578;47.892;9.970;2022-08-04T03:10:19;20.50;85.70
35463;DHT22;21578;47.892;9.970;2022-08-04T03:15:34;20.50;85.60
35463;DHT22;21578;47.892;9.970;2022-08-04T03:20:51;20.50;85.90
35463;DHT22;21578;47.892;9.970;2022-08-04T03:26:04;20.60;86.30
35463;DHT22;21578;47.892;9.970;2022-08-04T03:31:17;20.50;86.20
35463;DHT22;21578;47.892;9.970;2022-08-04T03:42:09;20.40;86.50
35463;DHT22;21578;47.892;9.970;2022-08-04T03:52:50;20.30;87.00
35463;DHT22;21578;47.892;9.970;2022-08-04T04:03:46;20.30;87.90
35463;DHT22;21578;47.892;9.970;2022-08-04T04:14:22;20.20;88.70
35463;DHT22;21578;47.892;9.970;2022-08-04T04:19:31;20.10;88.10
35463;DHT22;21578;47.892;9.970;2022-08-04T04:30:06;20.10;88.90
35463;DHT22;21578;47.892;9.970;2022-08-04T04:35:14;20.10;88.50
35463;DHT22;21578;47.892;9.970;2022-08-04T04:40:14;20.10;88.40
35463;DHT22;21578;47.892;9.970;2022-08-04T04:45:20;20.20;88.40
35463;DHT22;21578;47.892;9.970;2022-08-04T04:50:13;20.20;88.20
35463;DHT22;21578;47.892;9.970;2022-08-04T04:55:06;20.20;87.80
35463;DHT22;21578;47.892;9.970;2022-08-04T04:59:58;20.20;87.90
35463;DHT22;21578;47.892;9.970;2022-08-04T05:05:07;20.30;87.50
35463;DHT22;21578;47.892;9.970;2022-08-04T05:10:03;20.30;87.80
35463;DHT22;21578;47.892;9.970;2022-08-04T05:14:52;20.40;88.20
35463;DHT22;21578;47.892;9.970;2022-08-04T05:19:54;20.40;88.10
35463;DHT22;21578;47.892;9.970;2022-08-04T05:24:45;20.50;88.00
35463;DHT22;21578;47.892;9.970;2022-08-04T05:29:36;20.60;88.00
35463;DHT22;21578;47.892;9.970;2022-08-04T05:34:28;20.80;87.70
35463;DHT22;21578;47.892;9.970;2022-08-04T05:39:20;20.90;87.20
35463;DHT22;21578;47.892;9.970;2022-08-04T05:44:08;21.00;86.80
35463;DHT22;21578;47.892;9.970;2022-08-04T05:48:55;21.10;86.70
35463;DHT22;21578;47.892;9.970;2022-08-04T05:53:43;21.20;86.70
35463;DHT22;21578;47.892;9.970;2022-08-04T05:58:34;21.30;87.00
35463;DHT22;21578;47.892;9.970;2022-08-04T06:03:21;21.40;87.10
35463;DHT22;21578;47.892;9.970;2022-08-04T06:08:09;21.50;86.60
35463;DHT22;21578;47.892;9.970;2022-08-04T06:13:00;21.60;86.80
35463;DHT22;21578;47.892;9.970;2022-08-04T06:17:54;21.80;86.70
35463;DHT22;21578;47.892;9.970;2022-08-04T06:22:44;21.90;85.90
35463;DHT22;21578;47.892;9.970;2022-08-04T06:27:32;22.20;89.90
35463;DHT22;21578;47.892;9.970;2022-08-04T06:32:19;22.50;90.40
35463;DHT22;21578;47.892;9.970;2022-08-04T06:37:13;22.70;88.70
35463;DHT22;21578;47.892;9.970;2022-08-04T06:42:02;22.90;86.60
35463;DHT22;21578;47.892;9.970;2022-08-04T06:46:50;23.00;87.20
35463;DHT22;21578;47.892;9.970;2022-08-04T06:51:39;23.10;83.60
35463;DHT22;21578;47.892;9.970;2022-08-04T06:56:29;23.20;79.40
35463;DHT22;21578;47.892;9.970;2022-08-04T07:01:19;23.40;78.10
35463;DHT22;21578;47.892;9.970;2022-08-04T07:06:06;23.50;78.30
35463;DHT22;21578;47.892;9.970;2022-08-04T07:10:54;23.80;75.70
35463;DHT22;21578;47.892;9.970;2022-08-04T07:15:44;24.00;74.10
35463;DHT22;21578;47.892;9.970;2022-08-04T07:20:31;24.10;73.40
35463;DHT22;21578;47.892;9.970;2022-08-04T07:25:19;24.20;72.60
35463;DHT22;21578;47.892;9.970;2022-08-04T07:30:07;24.30;73.20
35463;DHT22;21578;47.892;9.970;2022-08-04T07:34:57;24.40;72.40
35463;DHT22;21578;47.892;9.970;2022-08-04T07:39:44;24.50;73.60
35463;DHT22;21578;47.892;9.970;2022-08-04T07:44:32;24.60;72.10
35463;DHT22;21578;47.892;9.970;2022-08-04T07:49:20;24.70;72.30
35463;DHT22;21578;47.892;9.970;2022-08-04T07:54:08;24.70;73.60
35463;DHT22;21578;47.892;9.970;2022-08-04T07:58:56;24.90;74.80
35463;DHT22;21578;47.892;9.970;2022-08-04T08:03:43;24.90;75.00
35463;DHT22;21578;47.892;9.970;2022-08-04T08:08:31;25.00;74.90
35463;DHT22;21578;47.892;9.970;2022-08-04T08:13:19;25.10;75.60
35463;DHT22;21578;47.892;9.970;2022-08-04T08:18:07;25.30;75.60
35463;DHT22;21578;47.892;9.970;2022-08-04T08:22:54;25.30;75.60
35463;DHT22;21578;47.892;9.970;2022-08-04T08:27:41;25.50;75.30
35463;DHT22;21578;47.892;9.970;2022-08-04T08:32:29;25.60;75.40
35463;DHT22;21578;47.892;9.970;2022-08-04T08:37:22;25.70;74.20
35463;DHT22;21578;47.892;9.970;2022-08-04T08:47:55;25.90;74.30
35463;DHT22;21578;47.892;9.970;2022-08-04T08:52:57;26.00;74.30
35463;DHT22;21578;47.892;9.970;2022-08-04T08:57:58;26.20;73.20
35463;DHT22;21578;47.892;9.970;2022-08-04T09:03:09;26.30;73.40
35463;DHT22;21578;47.892;9.970;2022-08-04T09:08:18;26.50;72.40
35463;DHT22;21578;47.892;9.970;2022-08-04T09:13:15;26.60;73.10
35463;DHT22;21578;47.892;9.970;2022-08-04T09:18:09;26.80;73.20
35463;DHT22;21578;47.892;9.970;2022-08-04T09:23:17;27.00;72.80
35463;DHT22;21578;47.892;9.970;2022-08-04T09:28:10;27.20;71.20
35463;DHT22;21578;47.892;9.970;2022-08-04T09:33:09;27.40;68.40
35463;DHT22;21578;47.892;9.970;2022-08-04T09:38:08;27.50;69.00
35463;DHT22;21578;47.892;9.970;2022-08-04T09:43:08;27.70;69.60
35463;DHT22;21578;47.892;9.970;2022-08-04T09:47:59;27.80;68.50
35463;DHT22;21578;47.892;9.970;2022-08-04T09:52:57;27.80;68.50
35463;DHT22;21578;47.892;9.970;2022-08-04T09:57:54;27.90;68.30
35463;DHT22;21578;47.892;9.970;2022-08-04T10:02:46;28.00;67.70
35463;DHT22;21578;47.892;9.970;2022-08-04T10:07:44;28.30;67.90
35463;DHT22;21578;47.892;9.970;2022-08-04T10:12:41;28.50;66.30
35463;DHT22;21578;47.892;9.970;2022-08-04T10:17:36;28.40;66.50
35463;DHT22;21578;47.892;9.970;2022-08-04T10:22:29;28.60;68.00
35463;DHT22;21578;47.892;9.970;2022-08-04T10:27:29;28.90;67.30
35463;DHT22;21578;47.892;9.970;2022-08-04T10:32:23;29.10;66.20
35463;DHT22;21578;47.892;9.970;2022-08-04T10:37:18;29.30;63.30
35463;DHT22;21578;47.892;9.970;2022-08-04T10:42:15;29.40;62.70
35463;DHT22;21578;47.892;9.970;2022-08-04T10:47:13;29.50;64.60
35463;DHT22;21578;47.892;9.970;2022-08-04T10:52:07;29.70;63.90
35463;DHT22;21578;47.892;9.970;2022-08-04T10:57:02;29.90;60.10
35463;DHT22;21578;47.892;9.970;2022-08-04T11:02:06;30.10;63.80
35463;DHT22;21578;47.892;9.970;2022-08-04T11:06:59;30.40;63.30
35463;DHT22;21578;47.892;9.970;2022-08-04T11:11:52;30.70;63.30
35463;DHT22;21578;47.892;9.970;2022-08-04T11:16:43;31.00;60.70
35463;DHT22;21578;47.892;9.970;2022-08-04T11:21:33;31.20;58.70
35463;DHT22;21578;47.892;9.970;2022-08-04T11:26:31;31.50;60.00
35463;DHT22;21578;47.892;9.970;2022-08-04T11:31:27;31.60;59.00
35463;DHT22;21578;47.892;9.970;2022-08-04T11:36:21;31.90;57.80
35463;DHT22;21578;47.892;9.970;2022-08-04T11:41:14;32.10;58.30
35463;DHT22;21578;47.892;9.970;2022-08-04T11:46:07;32.30;55.00
35463;DHT22;21578;47.892;9.970;2022-08-04T11:50:58;32.20;55.10
35463;DHT22;21578;47.892;9.970;2022-08-04T11:55:49;32.60;54.00
35463;DHT22;21578;47.892;9.970;2022-08-04T12:00:39;32.90;52.90
35463;DHT22;21578;47.892;9.970;2022-08-04T12:05:31;33.20;54.00
35463;DHT22;21578;47.892;9.970;2022-08-04T12:10:29;33.40;50.90
35463;DHT22;21578;47.892;9.970;2022-08-04T12:15:22;33.20;48.70
35463;DHT22;21578;47.892;9.970;2022-08-04T12:20:15;33.70;49.70
35463;DHT22;21578;47.892;9.970;2022-08-04T12:25:04;33.80;48.80
35463;DHT22;21578;47.892;9.970;2022-08-04T12:29:54;34.00;48.80
35463;DHT22;21578;47.892;9.970;2022-08-04T12:34:44;34.20;47.10
35463;DHT22;21578;47.892;9.970;2022-08-04T12:39:33;34.40;46.70
35463;DHT22;21578;47.892;9.970;2022-08-04T12:44:22;34.40;45.50
35463;DHT22;21578;47.892;9.970;2022-08-04T12:49:11;34.30;44.70
35463;DHT22;21578;47.892;9.970;2022-08-04T12:53:59;34.60;45.60
35463;DHT22;21578;47.892;9.970;2022-08-04T12:58:48;34.80;45.50
35463;DHT22;21578;47.892;9.970;2022-08-04T13:03:39;35.10;43.70
35463;DHT22;21578;47.892;9.970;2022-08-04T13:08:28;35.00;44.30
35463;DHT22;21578;47.892;9.970;2022-08-04T13:13:26;34.60;43.60
35463;DHT22;21578;47.892;9.970;2022-08-04T13:18:14;34.60;44.60
35463;DHT22;21578;47.892;9.970;2022-08-04T13:23:07;34.70;46.00
35463;DHT22;21578;47.892;9.970;2022-08-04T13:27:57;35.10;44.10
35463;DHT22;21578;47.892;9.970;2022-08-04T13:32:45;35.40;44.80
35463;DHT22;21578;47.892;9.970;2022-08-04T13:37:35;35.80;44.10
35463;DHT22;21578;47.892;9.970;2022-08-04T13:42:24;35.50;43.30
35463;DHT22;21578;47.892;9.970;2022-08-04T13:47:18;35.80;42.80
35463;DHT22;21578;47.892;9.970;2022-08-04T13:52:07;36.00;43.00
35463;DHT22;21578;47.892;9.970;2022-08-04T13:56:58;35.90;40.10
35463;DHT22;21578;47.892;9.970;2022-08-04T14:01:57;35.00;43.20
35463;DHT22;21578;47.892;9.970;2022-08-04T14:06:49;35.50;43.20
35463;DHT22;21578;47.892;9.970;2022-08-04T14:11:40;35.70;43.60
35463;DHT22;21578;47.892;9.970;2022-08-04T14:16:27;36.10;43.00
35463;DHT22;21578;47.892;9.970;2022-08-04T14:21:16;36.20;42.50
35463;DHT22;21578;47.892;9.970;2022-08-04T14:26:17;36.30;41.70
35463;DHT22;21578;47.892;9.970;2022-08-04T14:31:09;36.30;41.10
35463;DHT22;21578;47.892;9.970;2022-08-04T14:35:57;36.60;40.80
35463;DHT22;21578;47.892;9.970;2022-08-04T14:40:44;36.20;37.10
35463;DHT22;21578;47.892;9.970;2022-08-04T14:45:37;36.20;38.90
35463;DHT22;21578;47.892;9.970;2022-08-04T14:50:36;35.80;39.10
35463;DHT22;21578;47.892;9.970;2022-08-04T14:55:24;36.00;39.10
35463;DHT22;21578;47.892;9.970;2022-08-04T15:00:11;36.00;40.10
35463;DHT22;21578;47.892;9.970;2022-08-04T15:05:11;35.90;39.30
35463;DHT22;21578;47.892;9.970;2022-08-04T15:10:00;35.50;40.70
35463;DHT22;21578;47.892;9.970;2022-08-04T15:14:47;34.90;41.00
35463;DHT22;21578;47.892;9.970;2022-08-04T15:19:36;35.40;41.20
35463;DHT22;21578;47.892;9.970;2022-08-04T15:24:24;35.40;39.30
35463;DHT22;21578;47.892;9.970;2022-08-04T15:29:17;35.20;39.20
35463;DHT22;21578;47.892;9.970;2022-08-04T15:34:06;35.00;38.80
35463;DHT22;21578;47.892;9.970;2022-08-04T15:39:00;35.30;40.30
35463;DHT22;21578;47.892;9.970;2022-08-04T15:44:05;35.80;40.30
35463;DHT22;21578;47.892;9.970;2022-08-04T15:49:17;36.10;39.10
35463;DHT22;21578;47.892;9.970;2022-08-04T15:54:20;35.70;40.20
35463;DHT22;21578;47.892;9.970;2022-08-04T15:59:08;35.60;40.60
35463;DHT22;21578;47.892;9.970;2022-08-04T16:03:55;35.20;41.10
35463;DHT22;21578;47.892;9.970;2022-08-04T16:08:57;35.40;40.80
35463;DHT22;21578;47.892;9.970;2022-08-04T16:14:08;36.20;41.30
35463;DHT22;21578;47.892;9.970;2022-08-04T16:19:03;36.80;39.70
35463;DHT22;21578;47.892;9.970;2022-08-04T16:24:09;36.90;38.30
35463;DHT22;21578;47.892;9.970;2022-08-04T16:28:59;36.60;40.50
35463;DHT22;21578;47.892;9.970;2022-08-04T16:33:48;36.50;40.80
35463;DHT22;21578;47.892;9.970;2022-08-04T16:38:59;36.40;40.10
35463;DHT22;21578;47.892;9.970;2022-08-04T16:43:47;36.30;40.80
35463;DHT22;21578;47.892;9.970;2022-08-04T16:48:35;36.60;39.60
35463;DHT22;21578;47.892;9.970;2022-08-04T16:53:25;36.70;39.60
35463;DHT22;21578;47.892;9.970;2022-08-04T16:58:12;37.00;39.80
35463;DHT22;21578;47.892;9.970;2022-08-04T17:03:03;37.00;41.10
35463;DHT22;21578;47.892;9.970;2022-08-04T17:07:52;37.30;40.00
35463;DHT22;21578;47.892;9.970;2022-08-04T17:12:40;37.50;40.00
35463;DHT22;21578;47.892;9.970;2022-08-04T17:17:27;37.50;39.50
35463;DHT22;21578;47.892;9.970;2022-08-04T17:22:15;37.70;39.10
35463;DHT22;21578;47.892;9.970;2022-08-04T17:27:03;37.70;39.00
35463;DHT22;21578;47.892;9.970;2022-08-04T17:31:52;37.40;40.10
35463;DHT22;21578;47.892;9.970;2022-08-04T17:36:39;37.20;40.90
35463;DHT22;21578;47.892;9.970;2022-08-04T17:41:27;37.10;40.80
35463;DHT22;21578;47.892;9.970;2022-08-04T17:46:26;37.20;43.00
35463;DHT22;21578;47.892;9.970;2022-08-04T17:51:16;37.30;43.70
35463;DHT22;21578;47.892;9.970;2022-08-04T17:56:03;37.30;44.80
35463;DHT22;21578;47.892;9.970;2022-08-04T18:00:59;37.20;43.30
35463;DHT22;21578;47.892;9.970;2022-08-04T18:05:47;37.10;43.90
35463;DHT22;21578;47.892;9.970;2022-08-04T18:10:38;36.80;44.10
35463;DHT22;21578;47.892;9.970;2022-08-04T18:15:25;36.10;45.40
35463;DHT22;21578;47.892;9.970;2022-08-04T18:20:15;35.50;46.20
35463;DHT22;21578;47.892;9.970;2022-08-04T18:25:06;35.10;47.30
35463;DHT22;21578;47.892;9.970;2022-08-04T18:29:55;34.70;47.80
35463;DHT22;21578;47.892;9.970;2022-08-04T18:34:42;34.30;48.30
35463;DHT22;21578;47.892;9.970;2022-08-04T18:39:30;34.00;48.70
35463;DHT22;21578;47.892;9.970;2022-08-04T18:44:17;33.60;49.20
35463;DHT22;21578;47.892;9.970;2022-08-04T18:49:06;33.00;50.10
35463;DHT22;21578;47.892;9.970;2022-08-04T18:53:54;32.60;51.40
35463;DHT22;21578;47.892;9.970;2022-08-04T18:58:41;32.20;52.10
35463;DHT22;21578;47.892;9.970;2022-08-04T19:03:29;31.80;53.10
35463;DHT22;21578;47.892;9.970;2022-08-04T19:08:17;31.50;53.00
35463;DHT22;21578;47.892;9.970;2022-08-04T19:13:04;31.20;52.60
35463;DHT22;21578;47.892;9.970;2022-08-04T19:17:51;30.80;54.30
35463;DHT22;21578;47.892;9.970;2022-08-04T19:22:38;30.60;55.70
35463;DHT22;21578;47.892;9.970;2022-08-04T19:27:26;30.40;56.00
35463;DHT22;21578;47.892;9.970;2022-08-04T19:32:14;30.20;56.40
35463;DHT22;21578;47.892;9.970;2022-08-04T19:37:01;29.90;57.30
35463;DHT22;21578;47.892;9.970;2022-08-04T19:41:48;29.70;57.90
35463;DHT22;21578;47.892;9.970;2022-08-04T19:46:36;29.50;58.80
35463;DHT22;21578;47.892;9.970;2022-08-04T19:51:24;29.30;58.00
35463;DHT22;21578;47.892;9.970;2022-08-04T19:56:11;29.10;59.40
35463;DHT22;21578;47.892;9.970;2022-08-04T20:00:58;28.80;59.90
35463;DHT22;21578;47.892;9.970;2022-08-04T20:05:47;28.60;61.80
35463;DHT22;21578;47.892;9.970;2022-08-04T20:10:34;28.40;61.50
35463;DHT22;21578;47.892;9.970;2022-08-04T20:15:21;28.30;61.70
35463;DHT22;21578;47.892;9.970;2022-08-04T20:20:09;28.20;62.10
35463;DHT22;21578;47.892;9.970;2022-08-04T20:24:58;28.00;62.90
35463;DHT22;21578;47.892;9.970;2022-08-04T20:29:48;27.90;62.80
35463;DHT22;21578;47.892;9.970;2022-08-04T20:34:35;27.70;62.30
35463;DHT22;21578;47.892;9.970;2022-08-04T20:39:22;27.40;62.20
35463;DHT22;21578;47.892;9.970;2022-08-04T20:44:10;27.30;63.00
35463;DHT22;21578;47.892;9.970;2022-08-04T20:48:57;27.20;63.20
35463;DHT22;21578;47.892;9.970;2022-08-04T20:53:45;27.10;63.20
35463;DHT22;21578;47.892;9.970;2022-08-04T20:58:32;27.00;63.10
35463;DHT22;21578;47.892;9.970;2022-08-04T21:03:20;26.90;62.90
35463;DHT22;21578;47.892;9.970;2022-08-04T21:08:07;26.70;62.70
35463;DHT22;21578;47.892;9.970;2022-08-04T21:12:55;26.70;62.50
35463;DHT22;21578;47.892;9.970;2022-08-04T21:17:42;26.60;61.90
35463;DHT22;21578;47.892;9.970;2022-08-04T21:22:30;26.50;61.30
35463;DHT22;21578;47.892;9.970;2022-08-04T21:27:17;26.50;60.40
35463;DHT22;21578;47.892;9.970;2022-08-04T21:32:05;26.40;61.10
35463;DHT22;21578;47.892;9.970;2022-08-04T21:36:54;26.40;62.20
35463;DHT22;21578;47.892;9.970;2022-08-04T21:41:43;26.30;63.70
35463;DHT22;21578;47.892;9.970;2022-08-04T21:46:30;26.20;63.90
35463;DHT22;21578;47.892;9.970;2022-08-04T21:51:19;26.00;64.60
35463;DHT22;21578;47.892;9.970;2022-08-04T21:56:06;25.90;64.80
35463;DHT22;21578;47.892;9.970;2022-08-04T22:00:55;25.80;66.20
35463;DHT22;21578;47.892;9.970;2022-08-04T22:05:42;25.70;66.00
35463;DHT22;21578;47.892;9.970;2022-08-04T22:10:29;25.60;66.00
35463;DHT22;21578;47.892;9.970;2022-08-04T22:15:16;25.50;67.70
35463;DHT22;21578;47.892;9.970;2022-08-04T22:20:06;25.40;69.10
35463;DHT22;21578;47.892;9.970;2022-08-04T22:24:54;25.20;69.10
35463;DHT22;21578;47.892;9.970;2022-08-04T22:29:41;25.20;66.80
35463;DHT22;21578;47.892;9.970;2022-08-04T22:34:28;25.20;67.60
35463;DHT22;21578;47.892;9.970;2022-08-04T22:39:16;25.10;66.70
35463;DHT22;21578;47.892;9.970;2022-08-04T22:44:03;25.00;67.10
35463;DHT22;21578;47.892;9.970;2022-08-04T22:48:51;24.90;66.30
35463;DHT22;21578;47.892;9.970;2022-08-04T22:53:38;24.90;67.40
35463;DHT22;21578;47.892;9.970;2022-08-04T22:58:27;24.80;68.30
35463;DHT22;21578;47.892;9.970;2022-08-04T23:03:14;24.70;68.30
35463;DHT22;21578;47.892;9.970;2022-08-04T23:08:02;24.60;67.20
35463;DHT22;21578;47.892;9.970;2022-08-04T23:12:49;24.50;67.60
35463;DHT22;21578;47.892;9.970;2022-08-04T23:17:37;24.50;68.20
35463;DHT22;21578;47.892;9.970;2022-08-04T23:22:24;24.40;68.30
35463;DHT22;21578;47.892;9.970;2022-08-04T23:27:12;24.40;68.80
35463;DHT22;21578;47.892;9.970;2022-08-04T23:31:59;24.30;69.60
35463;DHT22;21578;47.892;9.970;2022-08-04T23:36:48;24.30;70.00
35463;DHT22;21578;47.892;9.970;2022-08-04T23:41:36;24.20;70.00
35463;DHT22;21578;47.892;9.970;2022-08-04T23:46:23;24.10;70.70
35463;DHT22;21578;47.892;9.970;2022-08-04T23:51:11;24.10;69.70
35463;DHT22;21578;47.892;9.970;2022-08-04T23:56:06;24.00;69.70
